sensor_id;sensor_type;location;lat;lon;timestamp;pressure;altitude;pressure_sealevel;temperature;humidity
20003;BME280;10162;41.600;23.806;2024-03-25T00:04:32;93644.94;;;9.51;100.00
20003;BME280;10162;41.600;23.806;2024-03-25T00:06:58;93633.28;;;9.88;100.00
20003;BME280;10162;41.600;23.806;2024-03-25T00:09:24;93651.66;;;9.82;100.00
20003;BME280;10162;41.600;23.806;2024-03-25T00:15:21;93626.31;;;9.47;100.00
20003;BME280;10162;41.600;23.806;2024-03-25T00:17:47;93630.03;;;9.28;100.00
20003;BME280;10162;41.600;23.806;2024-03-25T00:20:13;93631.69;;;9.23;100.00
20003;BME280;10162;41.600;23.806;2024-03-25T00:25:49;93628.75;;;9.31;100.00
20003;BME280;10162;41.600;23.806;2024-03-25T00:28:15;93637.13;;;9.21;100.00
20003;BME280;10162;41.600;23.806;2024-03-25T00:34:34;93674.69;;;9.02;100.00
20003;BME280;10162;41.600;23.806;2024-03-25T00:37:00;93659.31;;;8.64;100.00
20003;BME280;10162;41.600;23.806;2024-03-25T00:39:27;93659.78;;;8.43;100.00
20003;BME280;10162;41.600;23.806;2024-03-25T00:42:12;93662.44;;;9.02;100.00
20003;BME280;10162;41.600;23.806;2024-03-25T00:44:38;93642.47;;;8.96;100.00
20003;BME280;10162;41.600;23.806;2024-03-25T00:47:04;93663.94;;;8.62;100.00
20003;BME280;10162;41.600;23.806;2024-03-25T00:49:29;93641.84;;;8.53;100.00
20003;BME280;10162;41.600;23.806;2024-03-25T00:52:06;93609.13;;;8.57;100.00
20003;BME280;10162;41.600;23.806;2024-03-25T00:54:32;93639.63;;;8.86;100.00
20003;BME280;10162;41.600;23.806;2024-03-25T00:56:58;93611.34;;;9.01;100.00
20003;BME280;10162;41.600;23.806;2024-03-25T00:59:24;93634.03;;;9.12;100.00
20003;BME280;10162;41.600;23.806;2024-03-25T01:02:17;93642.97;;;8.75;100.00
20003;BME280;10162;41.600;23.806;2024-03-25T01:04:43;93601.44;;;8.44;100.00
20003;BME280;10162;41.600;23.806;2024-03-25T01:07:09;93605.28;;;8.23;100.00
20003;BME280;10162;41.600;23.806;2024-03-25T01:09:35;93615.41;;;8.49;100.00
20003;BME280;10162;41.600;23.806;2024-03-25T01:12:01;93604.41;;;8.65;100.00
20003;BME280;10162;41.600;23.806;2024-03-25T01:14:27;93608.09;;;8.76;100.00
20003;BME280;10162;41.600;23.806;2024-03-25T01:16:53;93598.66;;;8.75;100.00
20003;BME280;10162;41.600;23.806;2024-03-25T01:19:19;93595.28;;;8.56;100.00
20003;BME280;10162;41.600;23.806;2024-03-25T01:24:35;93579.97;;;8.78;100.00
20003;BME280;10162;41.600;23.806;2024-03-25T01:27:01;93582.50;;;8.85;100.00
20003;BME280;10162;41.600;23.806;2024-03-25T01:29:27;93577.56;;;8.65;100.00
20003;BME280;10162;41.600;23.806;2024-03-25T01:35:02;93580.34;;;8.82;100.00
20003;BME280;10162;41.600;23.806;2024-03-25T01:37:28;93589.97;;;8.81;100.00
20003;BME280;10162;41.600;23.806;2024-03-25T01:39:53;93591.19;;;9.08;100.00
20003;BME280;10162;41.600;23.806;2024-03-25T01:46:14;93591.19;;;9.08;100.00
20003;BME280;10162;41.600;23.806;2024-03-25T01:48:42;93589.91;;;8.40;100.00
20003;BME280;10162;41.600;23.806;2024-03-25T01:51:19;93590.81;;;8.63;100.00
20003;BME280;10162;41.600;23.806;2024-03-25T01:53:47;93592.94;;;8.37;100.00
20003;BME280;10162;41.600;23.806;2024-03-25T01:56:14;93629.94;;;8.57;100.00
20003;BME280;10162;41.600;23.806;2024-03-25T01:58:41;93641.75;;;8.89;100.00
20003;BME280;10162;41.600;23.806;2024-03-25T02:01:07;93636.22;;;8.86;100.00
20003;BME280;10162;41.600;23.806;2024-03-25T02:03:37;93629.31;;;8.91;100.00
20003;BME280;10162;41.600;23.806;2024-03-25T02:06:07;93640.38;;;9.05;100.00
20003;BME280;10162;41.600;23.806;2024-03-25T02:08:35;93611.91;;;8.74;100.00
20003;BME280;10162;41.600;23.806;2024-03-25T02:11:24;93627.22;;;9.11;100.00
20003;BME280;10162;41.600;23.806;2024-03-25T02:13:51;93619.28;;;9.06;100.00
20003;BME280;10162;41.600;23.806;2024-03-25T02:16:17;93644.00;;;9.04;100.00
20003;BME280;10162;41.600;23.806;2024-03-25T02:18:42;93646.16;;;9.07;100.00
20003;BME280;10162;41.600;23.806;2024-03-25T02:21:22;93647.91;;;8.95;100.00
20003;BME280;10162;41.600;23.806;2024-03-25T02:23:50;93658.13;;;8.96;100.00
20003;BME280;10162;41.600;23.806;2024-03-25T02:26:18;93648.66;;;8.84;100.00
20003;BME280;10162;41.600;23.806;2024-03-25T02:28:44;93655.41;;;8.73;100.00
20003;BME280;10162;41.600;23.806;2024-03-25T02:31:12;93639.09;;;8.48;100.00
20003;BME280;10162;41.600;23.806;2024-03-25T02:33:38;93656.78;;;8.57;100.00
20003;BME280;10162;41.600;23.806;2024-03-25T02:36:04;93642.56;;;8.60;100.00
20003;BME280;10162;41.600;23.806;2024-03-25T02:38:30;93672.34;;;8.46;100.00
20003;BME280;10162;41.600;23.806;2024-03-25T02:41:05;93646.09;;;8.47;100.00
20003;BME280;10162;41.600;23.806;2024-03-25T02:43:31;93670.25;;;8.54;100.00
20003;BME280;10162;41.600;23.806;2024-03-25T02:45:57;93645.38;;;8.58;100.00
20003;BME280;10162;41.600;23.806;2024-03-25T02:48:23;93662.81;;;8.40;100.00
20003;BME280;10162;41.600;23.806;2024-03-25T02:53:56;93652.41;;;8.15;100.00
20003;BME280;10162;41.600;23.806;2024-03-25T02:56:22;93679.47;;;8.14;100.00
20003;BME280;10162;41.600;23.806;2024-03-25T02:58:48;93679.06;;;8.35;100.00
20003;BME280;10162;41.600;23.806;2024-03-25T03:01:40;93702.28;;;8.55;100.00
20003;BME280;10162;41.600;23.806;2024-03-25T03:04:06;93697.88;;;8.55;100.00
20003;BME280;10162;41.600;23.806;2024-03-25T03:06:32;93680.63;;;8.43;100.00
20003;BME280;10162;41.600;23.806;2024-03-25T03:08:57;93640.16;;;7.79;100.00
20003;BME280;10162;41.600;23.806;2024-03-25T03:14:27;93681.84;;;8.15;100.00
20003;BME280;10162;41.600;23.806;2024-03-25T03:16:53;93708.63;;;7.98;100.00
20003;BME280;10162;41.600;23.806;2024-03-25T03:19:27;93708.03;;;7.71;100.00
20003;BME280;10162;41.600;23.806;2024-03-25T03:22:21;93716.06;;;7.94;100.00
20003;BME280;10162;41.600;23.806;2024-03-25T03:24:46;93693.00;;;7.98;100.00
20003;BME280;10162;41.600;23.806;2024-03-25T03:27:12;93670.91;;;7.32;100.00
20003;BME280;10162;41.600;23.806;2024-03-25T03:29:38;93699.97;;;7.79;100.00
20003;BME280;10162;41.600;23.806;2024-03-25T03:35:10;93707.97;;;7.53;100.00
20003;BME280;10162;41.600;23.806;2024-03-25T03:37:36;93693.28;;;7.65;100.00
20003;BME280;10162;41.600;23.806;2024-03-25T03:40:02;93691.19;;;7.48;100.00
20003;BME280;10162;41.600;23.806;2024-03-25T03:45:57;93703.16;;;7.81;100.00
20003;BME280;10162;41.600;23.806;2024-03-25T03:48:22;93730.97;;;7.80;100.00
20003;BME280;10162;41.600;23.806;2024-03-25T03:54:42;93706.94;;;7.29;100.00
20003;BME280;10162;41.600;23.806;2024-03-25T03:57:08;93735.63;;;7.09;100.00
20003;BME280;10162;41.600;23.806;2024-03-25T03:59:34;93726.84;;;7.03;100.00
20003;BME280;10162;41.600;23.806;2024-03-25T04:05:53;93711.53;;;6.89;100.00
20003;BME280;10162;41.600;23.806;2024-03-25T04:08:19;93754.44;;;7.04;100.00
20003;BME280;10162;41.600;23.806;2024-03-25T04:14:38;93751.66;;;6.99;100.00
20003;BME280;10162;41.600;23.806;2024-03-25T04:17:04;93726.09;;;7.34;100.00
20003;BME280;10162;41.600;23.806;2024-03-25T04:19:30;93733.72;;;7.61;100.00
20003;BME280;10162;41.600;23.806;2024-03-25T04:25:10;93748.31;;;7.24;100.00
20003;BME280;10162;41.600;23.806;2024-03-25T04:27:43;93708.47;;;6.98;100.00
20003;BME280;10162;41.600;23.806;2024-03-25T04:30:10;93734.97;;;7.20;100.00
20003;BME280;10162;41.600;23.806;2024-03-25T04:32:48;93749.91;;;7.31;100.00
20003;BME280;10162;41.600;23.806;2024-03-25T04:35:15;93705.97;;;7.23;100.00
20003;BME280;10162;41.600;23.806;2024-03-25T04:37:41;93698.53;;;7.27;100.00
20003;BME280;10162;41.600;23.806;2024-03-25T04:40:07;93745.41;;;7.76;100.00
20003;BME280;10162;41.600;23.806;2024-03-25T04:46:27;93747.47;;;7.36;100.00
20003;BME280;10162;41.600;23.806;2024-03-25T04:48:53;93744.53;;;7.26;100.00
20003;BME280;10162;41.600;23.806;2024-03-25T04:51:32;93736.81;;;7.06;100.00
20003;BME280;10162;41.600;23.806;2024-03-25T04:53:58;93758.84;;;7.35;100.00
20003;BME280;10162;41.600;23.806;2024-03-25T04:56:23;93761.38;;;7.17;100.00
20003;BME280;10162;41.600;23.806;2024-03-25T04:58:49;93757.22;;;7.03;100.00
20003;BME280;10162;41.600;23.806;2024-03-25T05:05:08;93801.34;;;7.16;100.00
20003;BME280;10162;41.600;23.806;2024-03-25T05:07:35;93812.94;;;7.14;100.00
20003;BME280;10162;41.600;23.806;2024-03-25T05:10:03;93808.97;;;7.11;100.00
20003;BME280;10162;41.600;23.806;2024-03-25T05:16:22;93811.41;;;6.99;100.00
20003;BME280;10162;41.600;23.806;2024-03-25T05:18:48;93821.97;;;7.04;100.00
20003;BME280;10162;41.600;23.806;2024-03-25T05:25:08;93802.06;;;7.36;100.00
20003;BME280;10162;41.600;23.806;2024-03-25T05:27:34;93812.06;;;7.71;100.00
20003;BME280;10162;41.600;23.806;2024-03-25T05:30:00;93825.22;;;8.14;100.00
20003;BME280;10162;41.600;23.806;2024-03-25T05:36:19;93816.69;;;8.32;100.00
20003;BME280;10162;41.600;23.806;2024-03-25T05:38:45;93832.09;;;8.58;100.00
20003;BME280;10162;41.600;23.806;2024-03-25T05:45:05;93833.97;;;8.94;100.00
20003;BME280;10162;41.600;23.806;2024-03-25T05:47:32;93831.59;;;9.10;100.00
20003;BME280;10162;41.600;23.806;2024-03-25T05:49:57;93828.91;;;9.17;100.00
20003;BME280;10162;41.600;23.806;2024-03-25T05:56:17;93836.88;;;9.04;100.00
20003;BME280;10162;41.600;23.806;2024-03-25T05:58:43;93833.19;;;8.93;100.00
20003;BME280;10162;41.600;23.806;2024-03-25T06:05:02;93847.66;;;9.26;100.00
20003;BME280;10162;41.600;23.806;2024-03-25T06:07:28;93842.59;;;9.31;100.00
20003;BME280;10162;41.600;23.806;2024-03-25T06:09:54;93854.81;;;9.12;100.00
20003;BME280;10162;41.600;23.806;2024-03-25T06:16:14;93849.09;;;9.40;100.00
20003;BME280;10162;41.600;23.806;2024-03-25T06:18:40;93846.28;;;9.23;100.00
20003;BME280;10162;41.600;23.806;2024-03-25T06:25:00;93851.09;;;9.44;100.00
20003;BME280;10162;41.600;23.806;2024-03-25T06:27:26;93837.66;;;9.23;100.00
20003;BME280;10162;41.600;23.806;2024-03-25T06:29:53;93851.09;;;9.44;100.00
20003;BME280;10162;41.600;23.806;2024-03-25T06:32:54;93847.66;;;9.62;100.00
20003;BME280;10162;41.600;23.806;2024-03-25T06:35:38;93864.13;;;9.44;98.07
20003;BME280;10162;41.600;23.806;2024-03-25T06:38:04;93856.38;;;9.20;94.05
20003;BME280;10162;41.600;23.806;2024-03-25T06:40:30;93864.78;;;9.88;90.01
20003;BME280;10162;41.600;23.806;2024-03-25T06:42:56;93878.50;;;10.13;87.82
20003;BME280;10162;41.600;23.806;2024-03-25T06:45:23;93855.78;;;10.02;86.74
20003;BME280;10162;41.600;23.806;2024-03-25T06:47:49;93843.34;;;9.98;82.28
20003;BME280;10162;41.600;23.806;2024-03-25T06:50:15;93846.75;;;9.68;81.12
20003;BME280;10162;41.600;23.806;2024-03-25T06:58:04;93854.94;;;10.31;75.56
20003;BME280;10162;41.600;23.806;2024-03-25T07:00:49;93861.09;;;10.37;71.75
20003;BME280;10162;41.600;23.806;2024-03-25T07:03:16;93839.09;;;10.45;75.68
20003;BME280;10162;41.600;23.806;2024-03-25T07:05:44;93817.38;;;10.32;67.17
20003;BME280;10162;41.600;23.806;2024-03-25T07:08:11;93858.81;;;9.99;69.07
20003;BME280;10162;41.600;23.806;2024-03-25T07:10:50;93861.81;;;10.56;63.15
20003;BME280;10162;41.600;23.806;2024-03-25T07:13:15;93851.19;;;10.27;62.22
20003;BME280;10162;41.600;23.806;2024-03-25T07:15:42;93873.56;;;9.75;59.80
20003;BME280;10162;41.600;23.806;2024-03-25T07:18:08;93872.41;;;9.89;64.80
20003;BME280;10162;41.600;23.806;2024-03-25T07:20:48;93871.72;;;10.89;64.04
20003;BME280;10162;41.600;23.806;2024-03-25T07:23:14;93885.84;;;11.86;62.67
20003;BME280;10162;41.600;23.806;2024-03-25T07:25:40;93905.38;;;11.55;55.73
20003;BME280;10162;41.600;23.806;2024-03-25T07:28:05;93906.63;;;11.52;59.83
20003;BME280;10162;41.600;23.806;2024-03-25T07:30:36;93894.03;;;11.38;56.73
20003;BME280;10162;41.600;23.806;2024-03-25T07:33:02;93852.09;;;11.09;55.98
20003;BME280;10162;41.600;23.806;2024-03-25T07:35:27;93872.41;;;11.19;54.39
20003;BME280;10162;41.600;23.806;2024-03-25T07:37:53;93892.09;;;10.75;55.79
20003;BME280;10162;41.600;23.806;2024-03-25T07:40:19;93854.06;;;11.42;57.55
20003;BME280;10162;41.600;23.806;2024-03-25T07:42:45;93897.63;;;12.12;53.18
20003;BME280;10162;41.600;23.806;2024-03-25T07:45:11;93885.88;;;12.59;55.73
20003;BME280;10162;41.600;23.806;2024-03-25T07:47:37;93892.66;;;11.98;51.43
20003;BME280;10162;41.600;23.806;2024-03-25T07:50:03;93883.94;;;11.81;54.18
20003;BME280;10162;41.600;23.806;2024-03-25T07:58:45;93909.69;;;11.61;49.91
20003;BME280;10162;41.600;23.806;2024-03-25T08:01:26;93899.53;;;10.60;51.42
20003;BME280;10162;41.600;23.806;2024-03-25T08:03:52;93890.03;;;11.00;50.82
20003;BME280;10162;41.600;23.806;2024-03-25T08:06:17;93901.88;;;10.91;50.75
20003;BME280;10162;41.600;23.806;2024-03-25T08:08:43;93910.28;;;11.40;51.39
20003;BME280;10162;41.600;23.806;2024-03-25T08:15:04;93899.16;;;11.33;48.04
20003;BME280;10162;41.600;23.806;2024-03-25T08:17:30;93932.78;;;11.41;49.26
20003;BME280;10162;41.600;23.806;2024-03-25T08:19:56;93946.47;;;11.43;47.38
20003;BME280;10162;41.600;23.806;2024-03-25T08:26:19;93925.50;;;10.96;46.02
20003;BME280;10162;41.600;23.806;2024-03-25T08:28:45;93925.19;;;10.93;47.60
20003;BME280;10162;41.600;23.806;2024-03-25T08:31:12;93965.09;;;11.46;46.41
20003;BME280;10162;41.600;23.806;2024-03-25T08:33:37;93953.97;;;11.74;47.65
20003;BME280;10162;41.600;23.806;2024-03-25T08:36:03;93958.38;;;11.85;46.24
20003;BME280;10162;41.600;23.806;2024-03-25T08:38:29;93963.16;;;11.88;46.55
20003;BME280;10162;41.600;23.806;2024-03-25T08:40:56;93956.22;;;11.71;47.70
20003;BME280;10162;41.600;23.806;2024-03-25T08:43:22;93970.22;;;11.88;47.18
20003;BME280;10162;41.600;23.806;2024-03-25T08:45:48;93978.97;;;11.12;44.05
20003;BME280;10162;41.600;23.806;2024-03-25T08:48:14;93944.03;;;10.95;46.08
20003;BME280;10162;41.600;23.806;2024-03-25T08:50:40;93955.16;;;10.78;47.21
20003;BME280;10162;41.600;23.806;2024-03-25T08:53:06;93947.22;;;10.97;47.08
20003;BME280;10162;41.600;23.806;2024-03-25T08:55:32;93952.09;;;10.70;45.24
20003;BME280;10162;41.600;23.806;2024-03-25T08:57:58;93967.81;;;10.22;46.16
20003;BME280;10162;41.600;23.806;2024-03-25T09:00:27;93953.81;;;10.99;46.50
20003;BME280;10162;41.600;23.806;2024-03-25T09:02:53;93972.28;;;11.28;46.84
20003;BME280;10162;41.600;23.806;2024-03-25T09:05:20;93978.06;;;11.65;47.51
20003;BME280;10162;41.600;23.806;2024-03-25T09:07:45;93970.91;;;11.25;45.90
20003;BME280;10162;41.600;23.806;2024-03-25T09:10:15;93932.75;;;10.83;44.59
20003;BME280;10162;41.600;23.806;2024-03-25T09:12:59;93984.56;;;11.62;45.23
20003;BME280;10162;41.600;23.806;2024-03-25T09:15:25;93946.44;;;11.08;45.48
20003;BME280;10162;41.600;23.806;2024-03-25T09:17:54;93978.66;;;12.02;43.64
20003;BME280;10162;41.600;23.806;2024-03-25T09:20:19;93976.34;;;12.45;42.94
20003;BME280;10162;41.600;23.806;2024-03-25T09:22:46;93982.25;;;12.97;41.48
20003;BME280;10162;41.600;23.806;2024-03-25T09:25:15;93989.44;;;13.35;43.77
20003;BME280;10162;41.600;23.806;2024-03-25T09:27:40;93963.16;;;11.65;45.69
20003;BME280;10162;41.600;23.806;2024-03-25T09:30:07;93963.13;;;13.13;45.36
20003;BME280;10162;41.600;23.806;2024-03-25T09:32:35;93965.88;;;12.05;43.27
20003;BME280;10162;41.600;23.806;2024-03-25T09:35:01;93962.53;;;13.11;42.58
20003;BME280;10162;41.600;23.806;2024-03-25T09:37:27;93965.00;;;13.51;39.74
20003;BME280;10162;41.600;23.806;2024-03-25T09:39:53;93992.16;;;12.95;40.50
20003;BME280;10162;41.600;23.806;2024-03-25T09:46:13;93986.25;;;13.67;39.14
20003;BME280;10162;41.600;23.806;2024-03-25T09:48:41;93966.72;;;12.22;40.05
20003;BME280;10162;41.600;23.806;2024-03-25T09:51:09;93957.09;;;12.68;40.04
20003;BME280;10162;41.600;23.806;2024-03-25T09:53:35;93968.19;;;13.53;42.29
20003;BME280;10162;41.600;23.806;2024-03-25T09:56:01;93962.41;;;12.73;41.28
20003;BME280;10162;41.600;23.806;2024-03-25T09:58:27;93956.78;;;13.26;40.27
20003;BME280;10162;41.600;23.806;2024-03-25T10:00:57;93939.50;;;13.30;39.77
20003;BME280;10162;41.600;23.806;2024-03-25T10:03:24;93939.97;;;13.27;39.26
20003;BME280;10162;41.600;23.806;2024-03-25T10:05:50;93961.38;;;13.36;40.37
20003;BME280;10162;41.600;23.806;2024-03-25T10:08:22;93952.28;;;12.65;40.13
20003;BME280;10162;41.600;23.806;2024-03-25T10:11:12;93979.59;;;12.80;39.70
20003;BME280;10162;41.600;23.806;2024-03-25T10:13:40;93971.13;;;13.07;39.68
20003;BME280;10162;41.600;23.806;2024-03-25T10:16:07;93962.47;;;12.61;40.20
20003;BME280;10162;41.600;23.806;2024-03-25T10:18:32;93972.38;;;13.71;39.10
20003;BME280;10162;41.600;23.806;2024-03-25T10:21:02;93966.13;;;12.32;39.03
20003;BME280;10162;41.600;23.806;2024-03-25T10:23:32;93965.09;;;13.23;39.77
20003;BME280;10162;41.600;23.806;2024-03-25T10:26:00;93965.81;;;13.52;37.04
20003;BME280;10162;41.600;23.806;2024-03-25T10:28:26;93973.66;;;14.29;37.81
20003;BME280;10162;41.600;23.806;2024-03-25T10:31:03;93991.97;;;14.02;37.45
20003;BME280;10162;41.600;23.806;2024-03-25T10:33:29;93985.28;;;14.81;37.37
20003;BME280;10162;41.600;23.806;2024-03-25T10:35:56;94001.59;;;15.10;37.19
20003;BME280;10162;41.600;23.806;2024-03-25T10:38:24;93999.13;;;14.45;36.61
20003;BME280;10162;41.600;23.806;2024-03-25T10:40:54;93984.13;;;14.45;37.26
20003;BME280;10162;41.600;23.806;2024-03-25T10:43:21;94013.28;;;13.84;36.01
20003;BME280;10162;41.600;23.806;2024-03-25T10:45:51;94025.03;;;13.98;35.51
20003;BME280;10162;41.600;23.806;2024-03-25T10:48:40;94007.88;;;14.34;36.84
20003;BME280;10162;41.600;23.806;2024-03-25T10:51:10;93991.75;;;14.96;36.80
20003;BME280;10162;41.600;23.806;2024-03-25T10:53:38;94013.75;;;14.84;36.21
20003;BME280;10162;41.600;23.806;2024-03-25T10:56:05;94011.94;;;13.81;35.22
20003;BME280;10162;41.600;23.806;2024-03-25T10:58:33;93999.78;;;13.58;34.20
20003;BME280;10162;41.600;23.806;2024-03-25T11:01:00;94035.66;;;13.36;33.51
20003;BME280;10162;41.600;23.806;2024-03-25T11:03:26;94027.63;;;13.26;34.84
20003;BME280;10162;41.600;23.806;2024-03-25T11:05:53;93988.41;;;13.19;34.76
20003;BME280;10162;41.600;23.806;2024-03-25T11:08:18;93984.19;;;13.18;35.16
20003;BME280;10162;41.600;23.806;2024-03-25T11:10:46;94028.84;;;13.07;36.11
20003;BME280;10162;41.600;23.806;2024-03-25T11:13:17;94004.38;;;12.45;34.82
20003;BME280;10162;41.600;23.806;2024-03-25T11:15:48;94029.81;;;14.01;37.04
20003;BME280;10162;41.600;23.806;2024-03-25T11:18:21;94032.09;;;13.97;34.68
20003;BME280;10162;41.600;23.806;2024-03-25T11:21:06;94025.34;;;14.62;35.00
20003;BME280;10162;41.600;23.806;2024-03-25T11:23:41;94037.97;;;14.65;32.66
20003;BME280;10162;41.600;23.806;2024-03-25T11:26:42;94041.50;;;14.10;32.13
20003;BME280;10162;41.600;23.806;2024-03-25T11:29:08;94030.31;;;14.85;32.31
20003;BME280;10162;41.600;23.806;2024-03-25T11:31:38;94055.41;;;14.49;31.99
20003;BME280;10162;41.600;23.806;2024-03-25T11:34:05;94042.88;;;12.84;34.90
20003;BME280;10162;41.600;23.806;2024-03-25T11:36:31;94017.84;;;12.65;37.07
20003;BME280;10162;41.600;23.806;2024-03-25T11:38:58;94051.78;;;12.71;33.07
20003;BME280;10162;41.600;23.806;2024-03-25T11:41:26;94043.38;;;13.76;33.65
20003;BME280;10162;41.600;23.806;2024-03-25T11:43:52;94050.31;;;13.04;33.73
20003;BME280;10162;41.600;23.806;2024-03-25T11:46:19;94065.22;;;12.47;33.75
20003;BME280;10162;41.600;23.806;2024-03-25T11:48:44;94049.09;;;13.23;33.52
20003;BME280;10162;41.600;23.806;2024-03-25T11:51:22;94037.19;;;13.65;32.96
20003;BME280;10162;41.600;23.806;2024-03-25T11:53:50;94054.41;;;14.12;34.72
20003;BME280;10162;41.600;23.806;2024-03-25T11:56:15;94048.88;;;13.58;33.86
20003;BME280;10162;41.600;23.806;2024-03-25T11:58:41;94050.69;;;13.57;31.52
20003;BME280;10162;41.600;23.806;2024-03-25T12:01:07;94057.63;;;14.19;33.63
20003;BME280;10162;41.600;23.806;2024-03-25T12:03:35;94041.13;;;13.85;33.28
20003;BME280;10162;41.600;23.806;2024-03-25T12:06:02;94071.94;;;14.44;31.28
20003;BME280;10162;41.600;23.806;2024-03-25T12:08:27;94061.13;;;13.69;33.58
20003;BME280;10162;41.600;23.806;2024-03-25T12:11:05;94069.09;;;13.12;32.11
20003;BME280;10162;41.600;23.806;2024-03-25T12:13:43;94078.47;;;13.87;32.51
20003;BME280;10162;41.600;23.806;2024-03-25T12:16:09;94048.19;;;13.17;33.30
20003;BME280;10162;41.600;23.806;2024-03-25T12:18:36;94084.75;;;13.36;31.10
20003;BME280;10162;41.600;23.806;2024-03-25T12:24:08;94090.78;;;11.81;33.09
20003;BME280;10162;41.600;23.806;2024-03-25T12:26:34;94078.28;;;11.30;33.67
20003;BME280;10162;41.600;23.806;2024-03-25T12:29:01;94090.69;;;12.74;32.03
20003;BME280;10162;41.600;23.806;2024-03-25T12:31:36;94095.81;;;13.88;32.15
20003;BME280;10162;41.600;23.806;2024-03-25T12:34:09;94080.63;;;14.28;30.51
20003;BME280;10162;41.600;23.806;2024-03-25T12:37:01;94103.63;;;14.55;32.46
20003;BME280;10162;41.600;23.806;2024-03-25T12:39:30;94091.00;;;14.35;30.94
20003;BME280;10162;41.600;23.806;2024-03-25T12:42:06;94101.25;;;13.64;31.26
20003;BME280;10162;41.600;23.806;2024-03-25T12:44:32;94096.22;;;14.52;33.16
20003;BME280;10162;41.600;23.806;2024-03-25T12:46:58;94110.06;;;14.85;31.03
20003;BME280;10162;41.600;23.806;2024-03-25T12:49:24;94100.97;;;14.98;31.74
20003;BME280;10162;41.600;23.806;2024-03-25T12:51:52;94112.03;;;14.18;30.26
20003;BME280;10162;41.600;23.806;2024-03-25T12:58:12;94108.16;;;15.29;31.65
20003;BME280;10162;41.600;23.806;2024-03-25T13:04:32;94120.44;;;15.19;31.63
20003;BME280;10162;41.600;23.806;2024-03-25T13:06:58;94119.09;;;15.43;30.85
20003;BME280;10162;41.600;23.806;2024-03-25T13:09:23;94136.16;;;14.48;28.14
20003;BME280;10162;41.600;23.806;2024-03-25T13:15:43;94117.69;;;15.57;30.98
20003;BME280;10162;41.600;23.806;2024-03-25T13:18:09;94118.91;;;15.77;29.51
20003;BME280;10162;41.600;23.806;2024-03-25T13:24:29;94123.31;;;15.44;30.15
20003;BME280;10162;41.600;23.806;2024-03-25T13:26:55;94124.66;;;15.74;29.23
20003;BME280;10162;41.600;23.806;2024-03-25T13:29:20;94116.47;;;15.70;30.15
20003;BME280;10162;41.600;23.806;2024-03-25T13:35:40;94150.09;;;15.36;31.27
20003;BME280;10162;41.600;23.806;2024-03-25T13:38:06;94132.66;;;15.30;30.31
20003;BME280;10162;41.600;23.806;2024-03-25T13:44:27;94150.25;;;16.05;31.50
20003;BME280;10162;41.600;23.806;2024-03-25T13:46:54;94173.13;;;16.36;30.11
20003;BME280;10162;41.600;23.806;2024-03-25T13:49:19;94166.53;;;15.70;30.00
20003;BME280;10162;41.600;23.806;2024-03-25T13:55:39;94154.41;;;16.33;29.95
20003;BME280;10162;41.600;23.806;2024-03-25T13:58:05;94175.25;;;16.34;30.49
20003;BME280;10162;41.600;23.806;2024-03-25T14:04:52;94189.53;;;15.09;30.40
20003;BME280;10162;41.600;23.806;2024-03-25T14:07:18;94186.84;;;15.48;29.28
20003;BME280;10162;41.600;23.806;2024-03-25T14:09:43;94190.00;;;14.63;28.42
20003;BME280;10162;41.600;23.806;2024-03-25T14:16:03;94200.47;;;15.45;30.30
20003;BME280;10162;41.600;23.806;2024-03-25T14:18:29;94220.75;;;15.44;29.04
20003;BME280;10162;41.600;23.806;2024-03-25T14:24:50;94193.59;;;14.57;31.89
20003;BME280;10162;41.600;23.806;2024-03-25T14:27:22;94193.84;;;14.55;30.91
20003;BME280;10162;41.600;23.806;2024-03-25T14:29:48;94195.66;;;14.21;31.15
20003;BME280;10162;41.600;23.806;2024-03-25T14:36:08;94186.66;;;13.84;30.44
20003;BME280;10162;41.600;23.806;2024-03-25T14:38:34;94190.91;;;14.90;32.86
20003;BME280;10162;41.600;23.806;2024-03-25T14:44:53;94208.53;;;15.11;30.64
20003;BME280;10162;41.600;23.806;2024-03-25T14:47:19;94221.50;;;15.18;31.31
20003;BME280;10162;41.600;23.806;2024-03-25T14:49:46;94225.44;;;15.59;30.77
20003;BME280;10162;41.600;23.806;2024-03-25T14:52:14;94227.81;;;14.57;31.91
20003;BME280;10162;41.600;23.806;2024-03-25T14:54:41;94227.94;;;15.27;33.05
20003;BME280;10162;41.600;23.806;2024-03-25T14:57:06;94221.00;;;15.21;35.88
20003;BME280;10162;41.600;23.806;2024-03-25T14:59:32;94207.19;;;15.09;31.40
20003;BME280;10162;41.600;23.806;2024-03-25T15:02:17;94224.75;;;15.03;30.89
20003;BME280;10162;41.600;23.806;2024-03-25T15:04:42;94256.84;;;15.44;31.10
20003;BME280;10162;41.600;23.806;2024-03-25T15:07:11;94257.81;;;15.81;30.52
20003;BME280;10162;41.600;23.806;2024-03-25T15:09:37;94237.81;;;14.26;32.37
20003;BME280;10162;41.600;23.806;2024-03-25T15:12:10;94241.19;;;14.38;31.76
20003;BME280;10162;41.600;23.806;2024-03-25T15:14:37;94274.25;;;14.51;30.58
20003;BME280;10162;41.600;23.806;2024-03-25T15:17:03;94247.63;;;14.64;31.18
20003;BME280;10162;41.600;23.806;2024-03-25T15:19:29;94272.03;;;14.98;30.64
20003;BME280;10162;41.600;23.806;2024-03-25T15:22:00;94241.97;;;14.22;30.60
20003;BME280;10162;41.600;23.806;2024-03-25T15:24:26;94286.44;;;14.91;29.90
20003;BME280;10162;41.600;23.806;2024-03-25T15:26:51;94272.06;;;13.18;31.00
20003;BME280;10162;41.600;23.806;2024-03-25T15:29:17;94275.25;;;14.33;33.14
20003;BME280;10162;41.600;23.806;2024-03-25T15:35:37;94282.06;;;13.73;31.33
20003;BME280;10162;41.600;23.806;2024-03-25T15:38:03;94284.84;;;12.91;30.92
20003;BME280;10162;41.600;23.806;2024-03-25T15:44:23;94312.56;;;12.11;33.01
20003;BME280;10162;41.600;23.806;2024-03-25T15:46:49;94301.78;;;11.41;35.92